sensor_id;sensor_type;location;lat;lon;timestamp;pressure;altitude;pressure_sealevel;temperature;humidity
20019;BME280;10170;42.502;26.526;2023-04-25T00:02:12;99016.16;;;11.30;100.00
20019;BME280;10170;42.502;26.526;2023-04-25T00:04:39;99007.13;;;11.31;100.00
20019;BME280;10170;42.502;26.526;2023-04-25T00:07:06;99013.63;;;11.35;100.00
20019;BME280;10170;42.502;26.526;2023-04-25T00:09:33;99008.28;;;11.35;100.00
20019;BME280;10170;42.502;26.526;2023-04-25T00:12:00;99004.03;;;11.46;100.00
20019;BME280;10170;42.502;26.526;2023-04-25T00:14:28;99016.19;;;11.72;100.00
20019;BME280;10170;42.502;26.526;2023-04-25T00:16:55;99017.97;;;11.78;100.00
20019;BME280;10170;42.502;26.526;2023-04-25T00:19:22;99003.97;;;11.64;100.00
20019;BME280;10170;42.502;26.526;2023-04-25T00:21:49;99014.81;;;11.92;100.00
20019;BME280;10170;42.502;26.526;2023-04-25T00:24:16;99018.66;;;11.96;100.00
20019;BME280;10170;42.502;26.526;2023-04-25T00:26:43;99009.66;;;11.97;100.00
20019;BME280;10170;42.502;26.526;2023-04-25T00:29:10;99013.44;;;12.01;100.00
20019;BME280;10170;42.502;26.526;2023-04-25T00:31:36;99005.34;;;11.85;100.00
20019;BME280;10170;42.502;26.526;2023-04-25T00:34:03;98992.81;;;11.85;100.00
20019;BME280;10170;42.502;26.526;2023-04-25T00:36:30;99007.41;;;11.94;100.00
20019;BME280;10170;42.502;26.526;2023-04-25T00:38:57;98986.09;;;11.94;100.00
20019;BME280;10170;42.502;26.526;2023-04-25T00:41:25;98968.38;;;11.77;100.00
20019;BME280;10170;42.502;26.526;2023-04-25T00:43:54;98995.03;;;11.88;100.00
20019;BME280;10170;42.502;26.526;2023-04-25T00:46:21;98987.94;;;11.82;100.00
20019;BME280;10170;42.502;26.526;2023-04-25T00:48:48;98984.75;;;11.50;100.00
20019;BME280;10170;42.502;26.526;2023-04-25T00:51:25;98971.00;;;11.24;100.00
20019;BME280;10170;42.502;26.526;2023-04-25T00:53:53;98973.22;;;11.27;100.00
20019;BME280;10170;42.502;26.526;2023-04-25T00:56:20;98945.97;;;11.13;100.00
20019;BME280;10170;42.502;26.526;2023-04-25T00:58:47;98954.13;;;11.30;100.00
20019;BME280;10170;42.502;26.526;2023-04-25T01:01:14;98956.34;;;11.03;100.00
20019;BME280;10170;42.502;26.526;2023-04-25T01:03:42;98955.44;;;10.61;100.00
20019;BME280;10170;42.502;26.526;2023-04-25T01:06:10;98948.56;;;10.72;100.00
20019;BME280;10170;42.502;26.526;2023-04-25T01:08:38;98946.13;;;10.71;100.00
20019;BME280;10170;42.502;26.526;2023-04-25T01:11:06;98934.28;;;10.37;100.00
20019;BME280;10170;42.502;26.526;2023-04-25T01:13:33;98947.41;;;10.32;100.00
20019;BME280;10170;42.502;26.526;2023-04-25T01:16:02;98935.75;;;10.33;100.00
20019;BME280;10170;42.502;26.526;2023-04-25T01:18:29;98935.16;;;10.31;100.00
20019;BME280;10170;42.502;26.526;2023-04-25T01:21:02;98933.16;;;10.26;100.00
20019;BME280;10170;42.502;26.526;2023-04-25T01:23:33;98933.31;;;10.31;100.00
20019;BME280;10170;42.502;26.526;2023-04-25T01:26:00;98922.31;;;10.46;100.00
20019;BME280;10170;42.502;26.526;2023-04-25T01:28:28;98927.63;;;10.46;100.00
20019;BME280;10170;42.502;26.526;2023-04-25T01:30:56;98923.28;;;10.33;100.00
20019;BME280;10170;42.502;26.526;2023-04-25T01:33:23;98918.91;;;10.57;100.00
20019;BME280;10170;42.502;26.526;2023-04-25T01:35:50;98910.72;;;10.58;100.00
20019;BME280;10170;42.502;26.526;2023-04-25T01:38:17;98914.19;;;10.59;100.00
20019;BME280;10170;42.502;26.526;2023-04-25T01:40:45;98897.03;;;10.73;100.00
20019;BME280;10170;42.502;26.526;2023-04-25T01:43:13;98899.13;;;10.53;100.00
20019;BME280;10170;42.502;26.526;2023-04-25T01:45:42;98907.97;;;10.65;100.00
20019;BME280;10170;42.502;26.526;2023-04-25T01:48:13;98902.75;;;10.58;100.00
20019;BME280;10170;42.502;26.526;2023-04-25T01:50:41;98908.41;;;10.62;100.00
20019;BME280;10170;42.502;26.526;2023-04-25T01:53:09;98904.72;;;10.63;100.00
20019;BME280;10170;42.502;26.526;2023-04-25T01:55:37;98903.56;;;10.59;100.00
20019;BME280;10170;42.502;26.526;2023-04-25T01:58:04;98891.16;;;10.53;100.00
20019;BME280;10170;42.502;26.526;2023-04-25T02:00:36;98899.22;;;10.76;100.00
20019;BME280;10170;42.502;26.526;2023-04-25T02:03:05;98894.28;;;10.80;100.00
20019;BME280;10170;42.502;26.526;2023-04-25T02:05:37;98885.94;;;10.76;100.00
20019;BME280;10170;42.502;26.526;2023-04-25T02:08:05;98899.91;;;10.72;100.00
20019;BME280;10170;42.502;26.526;2023-04-25T02:10:33;98907.34;;;10.81;100.00
20019;BME280;10170;42.502;26.526;2023-04-25T02:13:00;98916.03;;;10.88;100.00
20019;BME280;10170;42.502;26.526;2023-04-25T02:15:27;98914.59;;;10.74;100.00
20019;BME280;10170;42.502;26.526;2023-04-25T02:17:53;98891.09;;;10.89;100.00
20019;BME280;10170;42.502;26.526;2023-04-25T02:20:21;98881.09;;;10.85;100.00
20019;BME280;10170;42.502;26.526;2023-04-25T02:22:48;98877.00;;;10.71;100.00
20019;BME280;10170;42.502;26.526;2023-04-25T02:25:15;98877.22;;;10.39;100.00
20019;BME280;10170;42.502;26.526;2023-04-25T02:27:42;98895.84;;;10.39;100.00
20019;BME280;10170;42.502;26.526;2023-04-25T02:30:09;98916.03;;;10.22;100.00
20019;BME280;10170;42.502;26.526;2023-04-25T02:32:36;98899.38;;;10.33;100.00
20019;BME280;10170;42.502;26.526;2023-04-25T02:35:04;98912.56;;;10.58;100.00
20019;BME280;10170;42.502;26.526;2023-04-25T02:37:32;98893.88;;;10.65;100.00
20019;BME280;10170;42.502;26.526;2023-04-25T02:39:59;98906.84;;;10.73;100.00
20019;BME280;10170;42.502;26.526;2023-04-25T02:42:27;98910.97;;;10.69;100.00
20019;BME280;10170;42.502;26.526;2023-04-25T02:44:53;98909.41;;;10.49;100.00
20019;BME280;10170;42.502;26.526;2023-04-25T02:47:20;98912.75;;;10.27;100.00
20019;BME280;10170;42.502;26.526;2023-04-25T02:49:47;98905.56;;;10.09;100.00
20019;BME280;10170;42.502;26.526;2023-04-25T02:52:14;98894.31;;;9.89;100.00
20019;BME280;10170;42.502;26.526;2023-04-25T02:54:41;98880.28;;;9.64;100.00
20019;BME280;10170;42.502;26.526;2023-04-25T02:57:08;98875.81;;;9.58;100.00
20019;BME280;10170;42.502;26.526;2023-04-25T02:59:34;98867.13;;;9.51;100.00
20019;BME280;10170;42.502;26.526;2023-04-25T03:02:01;98876.13;;;9.50;100.00
20019;BME280;10170;42.502;26.526;2023-04-25T03:04:28;98893.13;;;9.42;100.00
20019;BME280;10170;42.502;26.526;2023-04-25T03:06:55;98884.69;;;9.70;100.00
20019;BME280;10170;42.502;26.526;2023-04-25T03:09:22;98892.00;;;9.75;100.00
20019;BME280;10170;42.502;26.526;2023-04-25T03:11:48;98878.59;;;9.70;100.00
20019;BME280;10170;42.502;26.526;2023-04-25T03:14:15;98896.72;;;9.73;100.00
20019;BME280;10170;42.502;26.526;2023-04-25T03:16:42;98900.13;;;9.80;100.00
20019;BME280;10170;42.502;26.526;2023-04-25T03:19:09;98893.72;;;9.87;100.00
20019;BME280;10170;42.502;26.526;2023-04-25T03:21:35;98890.00;;;10.13;100.00
20019;BME280;10170;42.502;26.526;2023-04-25T03:24:04;98902.13;;;10.27;100.00
20019;BME280;10170;42.502;26.526;2023-04-25T03:26:31;98905.19;;;10.42;100.00
20019;BME280;10170;42.502;26.526;2023-04-25T03:28:57;98885.47;;;10.49;100.00
20019;BME280;10170;42.502;26.526;2023-04-25T03:31:24;98890.69;;;10.56;100.00
20019;BME280;10170;42.502;26.526;2023-04-25T03:33:51;98895.00;;;10.57;100.00
20019;BME280;10170;42.502;26.526;2023-04-25T03:36:18;98893.78;;;10.71;100.00
20019;BME280;10170;42.502;26.526;2023-04-25T03:38:45;98904.31;;;10.78;100.00
20019;BME280;10170;42.502;26.526;2023-04-25T03:41:12;98899.16;;;10.83;100.00
20019;BME280;10170;42.502;26.526;2023-04-25T03:43:44;98899.41;;;10.93;100.00
20019;BME280;10170;42.502;26.526;2023-04-25T03:46:11;98925.25;;;11.04;100.00
20019;BME280;10170;42.502;26.526;2023-04-25T03:48:38;98911.91;;;10.92;100.00
20019;BME280;10170;42.502;26.526;2023-04-25T03:51:05;98923.59;;;11.03;100.00
20019;BME280;10170;42.502;26.526;2023-04-25T03:53:33;98921.28;;;10.95;100.00
20019;BME280;10170;42.502;26.526;2023-04-25T03:55:59;98923.47;;;10.98;100.00
20019;BME280;10170;42.502;26.526;2023-04-25T03:58:26;98918.28;;;11.44;100.00
20019;BME280;10170;42.502;26.526;2023-04-25T04:00:53;98926.97;;;11.51;100.00
20019;BME280;10170;42.502;26.526;2023-04-25T04:03:20;98931.88;;;11.65;100.00
20019;BME280;10170;42.502;26.526;2023-04-25T04:05:47;98941.53;;;11.90;100.00
20019;BME280;10170;42.502;26.526;2023-04-25T04:08:14;98938.25;;;11.99;100.00
20019;BME280;10170;42.502;26.526;2023-04-25T04:10:41;98938.41;;;11.81;100.00
20019;BME280;10170;42.502;26.526;2023-04-25T04:13:08;98947.75;;;11.84;100.00
20019;BME280;10170;42.502;26.526;2023-04-25T04:15:34;98948.47;;;11.91;100.00
20019;BME280;10170;42.502;26.526;2023-04-25T04:18:01;98947.19;;;11.70;100.00
20019;BME280;10170;42.502;26.526;2023-04-25T04:20:29;98946.59;;;11.68;100.00
20019;BME280;10170;42.502;26.526;2023-04-25T04:22:59;98938.84;;;11.67;100.00
20019;BME280;10170;42.502;26.526;2023-04-25T04:25:26;98940.91;;;11.76;100.00
20019;BME280;10170;42.502;26.526;2023-04-25T04:27:52;98927.94;;;11.80;100.00
20019;BME280;10170;42.502;26.526;2023-04-25T04:30:22;98936.53;;;11.70;100.00
20019;BME280;10170;42.502;26.526;2023-04-25T04:32:51;98930.28;;;11.64;100.00
20019;BME280;10170;42.502;26.526;2023-04-25T04:35:18;98931.50;;;11.62;100.00
20019;BME280;10170;42.502;26.526;2023-04-25T04:37:45;98924.03;;;11.82;100.00
20019;BME280;10170;42.502;26.526;2023-04-25T04:40:12;98927.16;;;11.91;100.00
20019;BME280;10170;42.502;26.526;2023-04-25T04:42:42;98922.84;;;12.01;100.00
20019;BME280;10170;42.502;26.526;2023-04-25T04:45:09;98939.78;;;11.95;100.00
20019;BME280;10170;42.502;26.526;2023-04-25T04:47:37;98917.78;;;11.77;100.00
20019;BME280;10170;42.502;26.526;2023-04-25T04:50:04;98911.97;;;11.80;100.00
20019;BME280;10170;42.502;26.526;2023-04-25T04:52:31;98916.94;;;11.99;100.00
20019;BME280;10170;42.502;26.526;2023-04-25T04:54:57;98914.72;;;12.19;100.00
20019;BME280;10170;42.502;26.526;2023-04-25T04:57:25;98922.00;;;12.35;100.00
20019;BME280;10170;42.502;26.526;2023-04-25T04:59:52;98923.50;;;12.43;100.00
20019;BME280;10170;42.502;26.526;2023-04-25T05:02:19;98922.88;;;12.64;100.00
20019;BME280;10170;42.502;26.526;2023-04-25T05:04:46;98930.63;;;12.65;100.00
20019;BME280;10170;42.502;26.526;2023-04-25T05:07:13;98929.44;;;12.85;100.00
20019;BME280;10170;42.502;26.526;2023-04-25T05:09:40;98923.47;;;13.22;100.00
20019;BME280;10170;42.502;26.526;2023-04-25T05:12:07;98930.50;;;13.28;100.00
20019;BME280;10170;42.502;26.526;2023-04-25T05:14:34;98922.44;;;13.40;100.00
20019;BME280;10170;42.502;26.526;2023-04-25T05:17:01;98922.00;;;13.15;100.00
20019;BME280;10170;42.502;26.526;2023-04-25T05:19:31;98935.44;;;13.20;100.00
20019;BME280;10170;42.502;26.526;2023-04-25T05:21:58;98929.81;;;13.33;100.00
20019;BME280;10170;42.502;26.526;2023-04-25T05:24:25;98922.94;;;13.37;100.00
20019;BME280;10170;42.502;26.526;2023-04-25T05:26:52;98921.00;;;13.49;100.00
20019;BME280;10170;42.502;26.526;2023-04-25T05:29:19;98920.91;;;13.44;100.00
20019;BME280;10170;42.502;26.526;2023-04-25T05:31:46;98919.72;;;13.51;100.00
20019;BME280;10170;42.502;26.526;2023-04-25T05:34:14;98914.84;;;13.48;100.00
20019;BME280;10170;42.502;26.526;2023-04-25T05:36:41;98919.63;;;13.80;100.00
20019;BME280;10170;42.502;26.526;2023-04-25T05:39:08;98895.41;;;13.86;100.00
20019;BME280;10170;42.502;26.526;2023-04-25T05:41:35;98925.31;;;14.21;100.00
20019;BME280;10170;42.502;26.526;2023-04-25T05:44:02;98922.03;;;14.14;100.00
20019;BME280;10170;42.502;26.526;2023-04-25T05:46:29;98932.75;;;13.81;100.00
20019;BME280;10170;42.502;26.526;2023-04-25T05:48:55;98934.25;;;13.94;100.00
20019;BME280;10170;42.502;26.526;2023-04-25T05:51:22;98922.50;;;13.95;100.00
20019;BME280;10170;42.502;26.526;2023-04-25T05:53:49;98917.47;;;13.98;100.00
20019;BME280;10170;42.502;26.526;2023-04-25T05:56:16;98912.38;;;14.13;100.00
20019;BME280;10170;42.502;26.526;2023-04-25T05:58:42;98912.03;;;14.26;100.00
20019;BME280;10170;42.502;26.526;2023-04-25T06:01:09;98917.91;;;13.73;100.00
20019;BME280;10170;42.502;26.526;2023-04-25T06:03:36;98918.56;;;13.81;100.00
20019;BME280;10170;42.502;26.526;2023-04-25T06:06:05;98906.00;;;13.98;100.00
20019;BME280;10170;42.502;26.526;2023-04-25T06:08:32;98900.91;;;13.96;100.00
20019;BME280;10170;42.502;26.526;2023-04-25T06:10:59;98915.63;;;13.99;100.00
20019;BME280;10170;42.502;26.526;2023-04-25T06:13:25;98919.13;;;13.99;100.00
20019;BME280;10170;42.502;26.526;2023-04-25T06:15:52;98897.66;;;13.94;100.00
20019;BME280;10170;42.502;26.526;2023-04-25T06:18:19;98909.00;;;13.85;100.00
20019;BME280;10170;42.502;26.526;2023-04-25T06:20:46;98909.50;;;13.82;100.00
20019;BME280;10170;42.502;26.526;2023-04-25T06:23:12;98900.16;;;13.84;100.00
20019;BME280;10170;42.502;26.526;2023-04-25T06:25:39;98903.16;;;14.04;100.00
20019;BME280;10170;42.502;26.526;2023-04-25T06:28:06;98907.00;;;14.13;100.00
20019;BME280;10170;42.502;26.526;2023-04-25T06:30:33;98893.91;;;14.12;100.00
20019;BME280;10170;42.502;26.526;2023-04-25T06:32:59;98908.13;;;14.34;100.00
20019;BME280;10170;42.502;26.526;2023-04-25T06:35:26;98910.63;;;14.24;100.00
20019;BME280;10170;42.502;26.526;2023-04-25T06:37:53;98908.19;;;14.01;100.00
20019;BME280;10170;42.502;26.526;2023-04-25T06:40:21;98909.56;;;14.03;100.00
20019;BME280;10170;42.502;26.526;2023-04-25T06:42:47;98910.28;;;13.82;100.00
20019;BME280;10170;42.502;26.526;2023-04-25T06:45:14;98913.13;;;13.92;100.00
20019;BME280;10170;42.502;26.526;2023-04-25T06:47:41;98913.25;;;14.19;100.00
20019;BME280;10170;42.502;26.526;2023-04-25T06:50:08;98913.31;;;14.24;100.00
20019;BME280;10170;42.502;26.526;2023-04-25T06:52:35;98909.50;;;14.36;100.00
20019;BME280;10170;42.502;26.526;2023-04-25T06:55:01;98913.06;;;14.25;100.00
20019;BME280;10170;42.502;26.526;2023-04-25T06:57:29;98923.06;;;14.13;100.00
20019;BME280;10170;42.502;26.526;2023-04-25T06:59:55;98917.34;;;14.43;100.00
20019;BME280;10170;42.502;26.526;2023-04-25T07:02:22;98918.34;;;14.58;100.00
20019;BME280;10170;42.502;26.526;2023-04-25T07:04:49;98923.88;;;14.52;100.00
20019;BME280;10170;42.502;26.526;2023-04-25T07:07:17;98917.31;;;14.86;100.00
20019;BME280;10170;42.502;26.526;2023-04-25T07:09:43;98924.06;;;15.15;100.00
20019;BME280;10170;42.502;26.526;2023-04-25T07:12:10;98926.75;;;14.94;100.00
20019;BME280;10170;42.502;26.526;2023-04-25T07:14:37;98931.41;;;14.55;100.00
20019;BME280;10170;42.502;26.526;2023-04-25T07:17:04;98926.59;;;15.00;100.00
20019;BME280;10170;42.502;26.526;2023-04-25T07:19:33;98923.00;;;15.16;100.00
20019;BME280;10170;42.502;26.526;2023-04-25T07:21:59;98915.09;;;15.05;100.00
20019;BME280;10170;42.502;26.526;2023-04-25T07:24:26;98925.63;;;15.38;100.00
20019;BME280;10170;42.502;26.526;2023-04-25T07:26:53;98924.56;;;15.39;100.00
20019;BME280;10170;42.502;26.526;2023-04-25T07:29:20;98926.59;;;15.27;100.00
20019;BME280;10170;42.502;26.526;2023-04-25T07:31:47;98906.50;;;15.93;100.00
20019;BME280;10170;42.502;26.526;2023-04-25T07:34:14;98911.34;;;17.09;100.00
20019;BME280;10170;42.502;26.526;2023-04-25T07:36:41;98913.31;;;17.74;100.00
20019;BME280;10170;42.502;26.526;2023-04-25T07:39:08;98931.03;;;18.00;100.00
20019;BME280;10170;42.502;26.526;2023-04-25T07:41:35;98928.38;;;17.65;100.00
20019;BME280;10170;42.502;26.526;2023-04-25T07:44:02;98925.91;;;17.33;100.00
20019;BME280;10170;42.502;26.526;2023-04-25T07:46:29;98927.28;;;17.56;100.00
20019;BME280;10170;42.502;26.526;2023-04-25T07:48:56;98921.63;;;18.03;100.00
20019;BME280;10170;42.502;26.526;2023-04-25T07:51:22;98914.00;;;18.40;100.00
20019;BME280;10170;42.502;26.526;2023-04-25T07:53:49;98921.34;;;18.04;100.00
20019;BME280;10170;42.502;26.526;2023-04-25T07:56:17;98915.69;;;18.06;100.00
20019;BME280;10170;42.502;26.526;2023-04-25T07:58:43;98905.72;;;18.21;100.00
20019;BME280;10170;42.502;26.526;2023-04-25T08:01:10;98901.97;;;18.07;100.00
20019;BME280;10170;42.502;26.526;2023-04-25T08:03:37;98920.47;;;18.39;100.00
20019;BME280;10170;42.502;26.526;2023-04-25T08:06:04;98914.25;;;18.58;100.00
20019;BME280;10170;42.502;26.526;2023-04-25T08:08:34;98906.44;;;18.52;100.00
20019;BME280;10170;42.502;26.526;2023-04-25T08:11:00;98918.84;;;19.07;100.00
20019;BME280;10170;42.502;26.526;2023-04-25T08:13:27;98918.31;;;19.05;100.00
20019;BME280;10170;42.502;26.526;2023-04-25T08:15:54;98916.50;;;19.39;100.00
20019;BME280;10170;42.502;26.526;2023-04-25T08:18:21;98921.22;;;18.59;100.00
20019;BME280;10170;42.502;26.526;2023-04-25T08:20:48;98921.59;;;18.23;100.00
20019;BME280;10170;42.502;26.526;2023-04-25T08:23:14;98924.31;;;17.82;100.00
20019;BME280;10170;42.502;26.526;2023-04-25T08:25:41;98920.84;;;17.87;100.00
20019;BME280;10170;42.502;26.526;2023-04-25T08:28:08;98910.34;;;17.85;100.00
20019;BME280;10170;42.502;26.526;2023-04-25T08:30:35;98901.41;;;18.20;100.00
20019;BME280;10170;42.502;26.526;2023-04-25T08:33:01;98909.09;;;18.62;100.00
20019;BME280;10170;42.502;26.526;2023-04-25T08:35:28;98907.41;;;19.25;100.00
20019;BME280;10170;42.502;26.526;2023-04-25T08:37:55;98908.66;;;19.76;100.00
20019;BME280;10170;42.502;26.526;2023-04-25T08:40:22;98901.75;;;20.46;100.00
20019;BME280;10170;42.502;26.526;2023-04-25T08:42:57;98902.75;;;20.97;100.00
20019;BME280;10170;42.502;26.526;2023-04-25T08:45:27;98859.56;;;21.29;100.00
20019;BME280;10170;42.502;26.526;2023-04-25T08:47:56;98901.75;;;21.12;86.45
20019;BME280;10170;42.502;26.526;2023-04-25T08:50:24;98899.56;;;20.24;92.83
20019;BME280;10170;42.502;26.526;2023-04-25T08:52:54;98898.72;;;20.94;88.84
20019;BME280;10170;42.502;26.526;2023-04-25T08:55:22;98906.25;;;20.55;94.60
20019;BME280;10170;42.502;26.526;2023-04-25T08:57:49;98902.44;;;21.54;86.77
20019;BME280;10170;42.502;26.526;2023-04-25T09:00:18;98905.91;;;21.23;86.21
20019;BME280;10170;42.502;26.526;2023-04-25T09:02:46;98903.06;;;21.33;81.32
20019;BME280;10170;42.502;26.526;2023-04-25T09:05:14;98891.94;;;21.16;80.67
20019;BME280;10170;42.502;26.526;2023-04-25T09:07:40;98894.22;;;21.09;86.71
20019;BME280;10170;42.502;26.526;2023-04-25T09:10:08;98894.72;;;21.80;89.33
20019;BME280;10170;42.502;26.526;2023-04-25T09:12:35;98895.28;;;21.63;79.55
20019;BME280;10170;42.502;26.526;2023-04-25T09:15:07;98890.94;;;22.67;75.12
20019;BME280;10170;42.502;26.526;2023-04-25T09:17:34;98876.44;;;22.18;77.36
20019;BME280;10170;42.502;26.526;2023-04-25T09:20:12;98874.56;;;23.08;77.31
20019;BME280;10170;42.502;26.526;2023-04-25T09:22:40;98877.03;;;23.54;69.98
20019;BME280;10170;42.502;26.526;2023-04-25T09:25:11;98872.00;;;23.25;79.78
20019;BME280;10170;42.502;26.526;2023-04-25T09:27:52;98876.47;;;22.31;76.06
20019;BME280;10170;42.502;26.526;2023-04-25T09:30:19;98870.34;;;22.66;74.29
20019;BME280;10170;42.502;26.526;2023-04-25T09:32:56;98846.81;;;21.48;76.48
20019;BME280;10170;42.502;26.526;2023-04-25T09:35:25;98871.78;;;21.27;77.34
20019;BME280;10170;42.502;26.526;2023-04-25T09:37:55;98858.47;;;20.93;80.83
20019;BME280;10170;42.502;26.526;2023-04-25T09:40:22;98858.81;;;20.68;79.77
20019;BME280;10170;42.502;26.526;2023-04-25T09:42:49;98868.13;;;21.18;79.82
20019;BME280;10170;42.502;26.526;2023-04-25T09:45:15;98864.28;;;20.81;82.24
20019;BME280;10170;42.502;26.526;2023-04-25T09:47:42;98860.03;;;20.57;81.40
20019;BME280;10170;42.502;26.526;2023-04-25T09:50:16;98861.47;;;21.10;87.11
20019;BME280;10170;42.502;26.526;2023-04-25T09:52:45;98850.78;;;20.63;84.50
20019;BME280;10170;42.502;26.526;2023-04-25T09:55:12;98852.88;;;20.66;87.28
20019;BME280;10170;42.502;26.526;2023-04-25T09:57:39;98845.44;;;21.32;82.38
20019;BME280;10170;42.502;26.526;2023-04-25T10:00:09;98840.16;;;21.73;82.97
20019;BME280;10170;42.502;26.526;2023-04-25T10:02:42;98833.94;;;22.32;100.00
20019;BME280;10170;42.502;26.526;2023-04-25T10:05:09;98834.53;;;22.91;74.44
20019;BME280;10170;42.502;26.526;2023-04-25T10:07:38;98829.13;;;21.69;77.66
20019;BME280;10170;42.502;26.526;2023-04-25T10:10:05;98822.38;;;22.40;79.18
20019;BME280;10170;42.502;26.526;2023-04-25T10:12:33;98807.59;;;22.73;76.20
20019;BME280;10170;42.502;26.526;2023-04-25T10:15:01;98796.59;;;22.56;78.61
20019;BME280;10170;42.502;26.526;2023-04-25T10:17:29;98796.47;;;22.96;80.39
20019;BME280;10170;42.502;26.526;2023-04-25T10:19:58;98803.31;;;22.31;75.91
20019;BME280;10170;42.502;26.526;2023-04-25T10:22:34;98803.31;;;22.94;74.79
20019;BME280;10170;42.502;26.526;2023-04-25T10:25:03;98798.72;;;22.81;67.01
20019;BME280;10170;42.502;26.526;2023-04-25T10:27:31;98794.00;;;22.10;66.58
20019;BME280;10170;42.502;26.526;2023-04-25T10:32:33;98784.03;;;23.18;67.72
20019;BME280;10170;42.502;26.526;2023-04-25T10:35:23;98794.09;;;23.70;68.25
20019;BME280;10170;42.502;26.526;2023-04-25T10:38:04;98789.88;;;24.25;64.87
20019;BME280;10170;42.502;26.526;2023-04-25T10:40:34;98788.66;;;24.48;64.75
20019;BME280;10170;42.502;26.526;2023-04-25T10:46:12;98780.69;;;24.04;67.15
20019;BME280;10170;42.502;26.526;2023-04-25T10:48:48;98779.09;;;24.59;65.07
20019;BME280;10170;42.502;26.526;2023-04-25T10:56:24;98777.97;;;24.77;63.43
20019;BME280;10170;42.502;26.526;2023-04-25T10:58:51;98765.63;;;23.98;63.55
20019;BME280;10170;42.502;26.526;2023-04-25T11:01:24;98769.91;;;23.82;65.62
20019;BME280;10170;42.502;26.526;2023-04-25T11:03:57;98760.31;;;24.32;64.71
20019;BME280;10170;42.502;26.526;2023-04-25T11:06:58;98772.06;;;24.92;62.62
20019;BME280;10170;42.502;26.526;2023-04-25T11:09:47;98768.13;;;25.62;59.13
20019;BME280;10170;42.502;26.526;2023-04-25T11:12:14;98771.91;;;24.80;58.70
20019;BME280;10170;42.502;26.526;2023-04-25T11:14:41;98768.56;;;23.71;63.06
20019;BME280;10170;42.502;26.526;2023-04-25T11:17:08;98768.09;;;24.17;62.63
20019;BME280;10170;42.502;26.526;2023-04-25T11:19:35;98765.78;;;24.41;62.96
20019;BME280;10170;42.502;26.526;2023-04-25T11:22:03;98760.09;;;24.93;60.02
20019;BME280;10170;42.502;26.526;2023-04-25T11:24:32;98763.91;;;24.92;59.42
20019;BME280;10170;42.502;26.526;2023-04-25T11:27:00;98769.03;;;24.85;61.17
20019;BME280;10170;42.502;26.526;2023-04-25T11:29:30;98762.88;;;25.31;59.24
20019;BME280;10170;42.502;26.526;2023-04-25T11:31:57;98763.28;;;24.70;58.70
20019;BME280;10170;42.502;26.526;2023-04-25T11:34:25;98757.31;;;23.94;59.92
20019;BME280;10170;42.502;26.526;2023-04-25T11:36:53;98744.53;;;24.68;59.07
20019;BME280;10170;42.502;26.526;2023-04-25T11:39:20;98745.59;;;24.33;59.10
20019;BME280;10170;42.502;26.526;2023-04-25T11:41:47;98731.03;;;24.04;61.19
20019;BME280;10170;42.502;26.526;2023-04-25T11:44:18;98733.03;;;24.63;59.62
20019;BME280;10170;42.502;26.526;2023-04-25T11:46:45;98736.88;;;24.70;58.50
20019;BME280;10170;42.502;26.526;2023-04-25T11:49:14;98726.28;;;24.52;59.39
20019;BME280;10170;42.502;26.526;2023-04-25T11:51:42;98713.00;;;24.33;59.30
20019;BME280;10170;42.502;26.526;2023-04-25T11:54:10;98698.59;;;24.33;63.85
20019;BME280;10170;42.502;26.526;2023-04-25T11:56:45;98702.00;;;24.89;59.61
20019;BME280;10170;42.502;26.526;2023-04-25T11:59:12;98691.63;;;25.46;57.61
20019;BME280;10170;42.502;26.526;2023-04-25T12:01:41;98695.97;;;25.39;57.66
20019;BME280;10170;42.502;26.526;2023-04-25T12:04:22;98668.69;;;24.92;55.56
20019;BME280;10170;42.502;26.526;2023-04-25T12:06:54;98679.22;;;25.20;57.46
20019;BME280;10170;42.502;26.526;2023-04-25T12:09:32;98675.28;;;24.91;57.02
20019;BME280;10170;42.502;26.526;2023-04-25T12:12:00;98658.34;;;23.70;57.25
20019;BME280;10170;42.502;26.526;2023-04-25T12:14:31;98662.25;;;23.16;59.18
20019;BME280;10170;42.502;26.526;2023-04-25T12:17:01;98645.91;;;22.77;59.53
20019;BME280;10170;42.502;26.526;2023-04-25T12:19:35;98650.47;;;22.68;60.11
20019;BME280;10170;42.502;26.526;2023-04-25T12:22:03;98655.53;;;22.61;60.24
20019;BME280;10170;42.502;26.526;2023-04-25T12:24:45;98651.75;;;22.48;60.77
20019;BME280;10170;42.502;26.526;2023-04-25T12:27:14;98646.72;;;22.55;61.19
20019;BME280;10170;42.502;26.526;2023-04-25T12:29:53;98647.09;;;22.62;61.26
20019;BME280;10170;42.502;26.526;2023-04-25T12:32:21;98636.88;;;22.59;61.55
20019;BME280;10170;42.502;26.526;2023-04-25T12:34:48;98645.22;;;22.27;63.87
20019;BME280;10170;42.502;26.526;2023-04-25T12:37:14;98644.16;;;22.15;63.83
20019;BME280;10170;42.502;26.526;2023-04-25T12:39:42;98645.47;;;22.39;62.78
20019;BME280;10170;42.502;26.526;2023-04-25T12:42:09;98644.09;;;22.64;63.18
20019;BME280;10170;42.502;26.526;2023-04-25T12:44:39;98635.78;;;22.60;63.36
20019;BME280;10170;42.502;26.526;2023-04-25T12:47:05;98642.88;;;22.34;63.79
20019;BME280;10170;42.502;26.526;2023-04-25T12:49:33;98648.56;;;22.11;63.97
20019;BME280;10170;42.502;26.526;2023-04-25T12:51:59;98646.53;;;22.16;64.39
20019;BME280;10170;42.502;26.526;2023-04-25T12:54:26;98651.38;;;22.19;63.10
20019;BME280;10170;42.502;26.526;2023-04-25T12:56:53;98649.69;;;22.10;65.28
20019;BME280;10170;42.502;26.526;2023-04-25T12:59:21;98654.53;;;21.85;69.12